sensor_id;sensor_type;location;lat;lon;timestamp;P1;durP1;ratioP1;P2;durP2;ratioP2
25237;SDS011;13185;50.872;5.306;2023-03-23T00:02:14;4.55;;;1.58;;
25237;SDS011;13185;50.872;5.306;2023-03-23T00:04:39;2.83;;;1.75;;
25237;SDS011;13185;50.872;5.306;2023-03-23T00:07:07;3.95;;;1.35;;
25237;SDS011;13185;50.872;5.306;2023-03-23T00:09:33;2.38;;;1.35;;
25237;SDS011;13185;50.872;5.306;2023-03-23T00:12:06;3.22;;;1.40;;
25237;SDS011;13185;50.872;5.306;2023-03-23T00:14:33;4.32;;;1.60;;
25237;SDS011;13185;50.872;5.306;2023-03-23T00:17:07;2.90;;;1.65;;
25237;SDS011;13185;50.872;5.306;2023-03-23T00:19:35;4.00;;;1.48;;
25237;SDS011;13185;50.872;5.306;2023-03-23T00:22:13;2.50;;;1.35;;
25237;SDS011;13185;50.872;5.306;2023-03-23T00:24:40;1.90;;;1.45;;
25237;SDS011;13185;50.872;5.306;2023-03-23T00:27:07;2.30;;;1.25;;
25237;SDS011;13185;50.872;5.306;2023-03-23T00:29:34;3.60;;;1.42;;
25237;SDS011;13185;50.872;5.306;2023-03-23T00:32:00;2.97;;;1.75;;
25237;SDS011;13185;50.872;5.306;2023-03-23T00:34:30;2.38;;;1.48;;
25237;SDS011;13185;50.872;5.306;2023-03-23T00:36:59;3.15;;;1.63;;
25237;SDS011;13185;50.872;5.306;2023-03-23T00:39:25;2.80;;;1.83;;
25237;SDS011;13185;50.872;5.306;2023-03-23T00:41:53;2.83;;;1.67;;
25237;SDS011;13185;50.872;5.306;2023-03-23T00:44:29;2.92;;;1.55;;
25237;SDS011;13185;50.872;5.306;2023-03-23T00:46:56;3.40;;;1.70;;
25237;SDS011;13185;50.872;5.306;2023-03-23T00:49:23;2.92;;;1.90;;
25237;SDS011;13185;50.872;5.306;2023-03-23T00:51:54;4.22;;;1.70;;
25237;SDS011;13185;50.872;5.306;2023-03-23T00:54:22;2.45;;;1.50;;
25237;SDS011;13185;50.872;5.306;2023-03-23T00:56:49;2.92;;;1.83;;
25237;SDS011;13185;50.872;5.306;2023-03-23T00:59:15;3.28;;;1.83;;
25237;SDS011;13185;50.872;5.306;2023-03-23T01:01:40;3.03;;;1.70;;
25237;SDS011;13185;50.872;5.306;2023-03-23T01:04:06;2.78;;;1.80;;
25237;SDS011;13185;50.872;5.306;2023-03-23T01:06:36;4.18;;;1.63;;
25237;SDS011;13185;50.872;5.306;2023-03-23T01:09:06;3.78;;;1.90;;
25237;SDS011;13185;50.872;5.306;2023-03-23T01:11:32;3.47;;;2.00;;
25237;SDS011;13185;50.872;5.306;2023-03-23T01:13:58;2.15;;;1.92;;
25237;SDS011;13185;50.872;5.306;2023-03-23T01:16:25;3.85;;;1.70;;
25237;SDS011;13185;50.872;5.306;2023-03-23T01:18:50;2.45;;;1.80;;
25237;SDS011;13185;50.872;5.306;2023-03-23T01:21:17;2.38;;;1.65;;
25237;SDS011;13185;50.872;5.306;2023-03-23T01:23:45;4.18;;;2.05;;
25237;SDS011;13185;50.872;5.306;2023-03-23T01:26:12;2.35;;;1.65;;
25237;SDS011;13185;50.872;5.306;2023-03-23T01:28:43;4.38;;;1.83;;
25237;SDS011;13185;50.872;5.306;2023-03-23T01:31:10;5.18;;;2.10;;
25237;SDS011;13185;50.872;5.306;2023-03-23T01:33:38;3.80;;;2.08;;
25237;SDS011;13185;50.872;5.306;2023-03-23T01:36:07;5.00;;;1.95;;
25237;SDS011;13185;50.872;5.306;2023-03-23T01:38:36;2.42;;;1.77;;
25237;SDS011;13185;50.872;5.306;2023-03-23T01:41:03;3.85;;;1.88;;
25237;SDS011;13185;50.872;5.306;2023-03-23T01:43:29;2.78;;;1.70;;
25237;SDS011;13185;50.872;5.306;2023-03-23T01:45:55;3.70;;;1.88;;
25237;SDS011;13185;50.872;5.306;2023-03-23T01:48:22;2.65;;;1.83;;
25237;SDS011;13185;50.872;5.306;2023-03-23T01:51:08;3.05;;;1.88;;
25237;SDS011;13185;50.872;5.306;2023-03-23T01:53:38;4.82;;;2.42;;
25237;SDS011;13185;50.872;5.306;2023-03-23T01:56:07;3.38;;;1.90;;
25237;SDS011;13185;50.872;5.306;2023-03-23T01:58:36;2.58;;;2.10;;
25237;SDS011;13185;50.872;5.306;2023-03-23T02:01:05;4.00;;;2.13;;
25237;SDS011;13185;50.872;5.306;2023-03-23T02:03:37;3.05;;;1.90;;
25237;SDS011;13185;50.872;5.306;2023-03-23T02:06:04;2.50;;;2.03;;
25237;SDS011;13185;50.872;5.306;2023-03-23T02:08:38;2.28;;;1.83;;
25237;SDS011;13185;50.872;5.306;2023-03-23T02:11:11;4.85;;;2.30;;
25237;SDS011;13185;50.872;5.306;2023-03-23T02:13:39;3.38;;;2.05;;
25237;SDS011;13185;50.872;5.306;2023-03-23T02:18:49;2.33;;;1.70;;
25237;SDS011;13185;50.872;5.306;2023-03-23T02:38:49;2.75;;;1.75;;
25237;SDS011;13185;50.872;5.306;2023-03-23T02:41:45;2.67;;;1.70;;
25237;SDS011;13185;50.872;5.306;2023-03-23T02:44:16;2.22;;;1.58;;
25237;SDS011;13185;50.872;5.306;2023-03-23T02:46:43;4.50;;;2.03;;
25237;SDS011;13185;50.872;5.306;2023-03-23T02:49:11;2.42;;;1.77;;
25237;SDS011;13185;50.872;5.306;2023-03-23T02:51:40;2.78;;;1.55;;
25237;SDS011;13185;50.872;5.306;2023-03-23T02:54:11;2.80;;;1.85;;
25237;SDS011;13185;50.872;5.306;2023-03-23T02:56:39;2.17;;;1.80;;
25237;SDS011;13185;50.872;5.306;2023-03-23T02:59:13;2.40;;;1.88;;
25237;SDS011;13185;50.872;5.306;2023-03-23T03:04:05;2.83;;;1.70;;
25237;SDS011;13185;50.872;5.306;2023-03-23T03:10:14;3.60;;;2.00;;
25237;SDS011;13185;50.872;5.306;2023-03-23T03:15:31;2.58;;;1.73;;
25237;SDS011;13185;50.872;5.306;2023-03-23T03:18:03;1.83;;;1.50;;
25237;SDS011;13185;50.872;5.306;2023-03-23T03:20:40;2.25;;;1.30;;
25237;SDS011;13185;50.872;5.306;2023-03-23T03:23:11;3.03;;;1.75;;
25237;SDS011;13185;50.872;5.306;2023-03-23T03:25:41;2.85;;;1.33;;
25237;SDS011;13185;50.872;5.306;2023-03-23T03:28:15;1.45;;;1.05;;
25237;SDS011;13185;50.872;5.306;2023-03-23T03:30:44;2.83;;;1.70;;
25237;SDS011;13185;50.872;5.306;2023-03-23T03:33:12;3.58;;;1.23;;
25237;SDS011;13185;50.872;5.306;2023-03-23T03:35:38;2.70;;;1.45;;
25237;SDS011;13185;50.872;5.306;2023-03-23T03:38:08;3.35;;;1.48;;
25237;SDS011;13185;50.872;5.306;2023-03-23T03:40:35;1.70;;;1.15;;
25237;SDS011;13185;50.872;5.306;2023-03-23T03:43:00;3.53;;;1.38;;
25237;SDS011;13185;50.872;5.306;2023-03-23T03:45:27;2.15;;;1.38;;
25237;SDS011;13185;50.872;5.306;2023-03-23T03:47:52;2.33;;;1.20;;
25237;SDS011;13185;50.872;5.306;2023-03-23T03:50:18;1.48;;;1.27;;
25237;SDS011;13185;50.872;5.306;2023-03-23T03:52:43;2.13;;;1.00;;
25237;SDS011;13185;50.872;5.306;2023-03-23T03:55:10;2.20;;;1.13;;
25237;SDS011;13185;50.872;5.306;2023-03-23T03:57:39;2.63;;;1.17;;
25237;SDS011;13185;50.872;5.306;2023-03-23T04:00:44;2.15;;;1.08;;
25237;SDS011;13185;50.872;5.306;2023-03-23T04:03:16;1.77;;;1.23;;
25237;SDS011;13185;50.872;5.306;2023-03-23T04:05:54;2.80;;;1.10;;
25237;SDS011;13185;50.872;5.306;2023-03-23T04:08:22;2.95;;;1.20;;
25237;SDS011;13185;50.872;5.306;2023-03-23T04:10:48;3.33;;;1.00;;
25237;SDS011;13185;50.872;5.306;2023-03-23T04:13:15;2.65;;;1.27;;
25237;SDS011;13185;50.872;5.306;2023-03-23T04:16:01;1.88;;;1.02;;
25237;SDS011;13185;50.872;5.306;2023-03-23T04:18:27;4.63;;;1.00;;
25237;SDS011;13185;50.872;5.306;2023-03-23T04:20:55;2.28;;;1.23;;
25237;SDS011;13185;50.872;5.306;2023-03-23T04:23:25;2.38;;;0.90;;
25237;SDS011;13185;50.872;5.306;2023-03-23T04:25:53;2.17;;;0.93;;
25237;SDS011;13185;50.872;5.306;2023-03-23T04:28:25;4.43;;;0.90;;
25237;SDS011;13185;50.872;5.306;2023-03-23T04:31:11;2.70;;;1.02;;
25237;SDS011;13185;50.872;5.306;2023-03-23T04:33:41;2.88;;;1.30;;
25237;SDS011;13185;50.872;5.306;2023-03-23T04:36:07;3.70;;;1.10;;
25237;SDS011;13185;50.872;5.306;2023-03-23T04:38:37;3.55;;;1.60;;
25237;SDS011;13185;50.872;5.306;2023-03-23T04:41:10;3.72;;;0.80;;
25237;SDS011;13185;50.872;5.306;2023-03-23T04:43:49;4.20;;;1.02;;
25237;SDS011;13185;50.872;5.306;2023-03-23T04:46:25;6.22;;;1.17;;
25237;SDS011;13185;50.872;5.306;2023-03-23T04:48:54;4.20;;;1.17;;
25237;SDS011;13185;50.872;5.306;2023-03-23T04:51:26;4.80;;;1.00;;
25237;SDS011;13185;50.872;5.306;2023-03-23T04:53:53;2.88;;;0.82;;
25237;SDS011;13185;50.872;5.306;2023-03-23T04:56:21;2.88;;;0.88;;
25237;SDS011;13185;50.872;5.306;2023-03-23T04:58:46;5.65;;;1.20;;
25237;SDS011;13185;50.872;5.306;2023-03-23T05:01:31;4.88;;;1.15;;
25237;SDS011;13185;50.872;5.306;2023-03-23T05:04:19;2.72;;;0.82;;
25237;SDS011;13185;50.872;5.306;2023-03-23T05:06:56;1.77;;;0.80;;
25237;SDS011;13185;50.872;5.306;2023-03-23T05:09:26;5.13;;;1.05;;
25237;SDS011;13185;50.872;5.306;2023-03-23T05:11:53;5.50;;;1.27;;
25237;SDS011;13185;50.872;5.306;2023-03-23T05:14:19;4.45;;;0.95;;
25237;SDS011;13185;50.872;5.306;2023-03-23T05:16:55;4.03;;;0.98;;
25237;SDS011;13185;50.872;5.306;2023-03-23T05:19:24;3.03;;;1.00;;
25237;SDS011;13185;50.872;5.306;2023-03-23T05:21:51;4.15;;;1.20;;
25237;SDS011;13185;50.872;5.306;2023-03-23T05:24:16;4.60;;;1.38;;
25237;SDS011;13185;50.872;5.306;2023-03-23T05:26:43;3.05;;;0.90;;
25237;SDS011;13185;50.872;5.306;2023-03-23T05:29:19;4.03;;;1.17;;
25237;SDS011;13185;50.872;5.306;2023-03-23T05:31:53;3.17;;;1.05;;
25237;SDS011;13185;50.872;5.306;2023-03-23T05:34:21;3.38;;;0.90;;
25237;SDS011;13185;50.872;5.306;2023-03-23T05:36:51;5.38;;;1.50;;
25237;SDS011;13185;50.872;5.306;2023-03-23T05:39:28;4.78;;;1.00;;
25237;SDS011;13185;50.872;5.306;2023-03-23T05:42:12;3.15;;;0.90;;
25237;SDS011;13185;50.872;5.306;2023-03-23T05:44:48;3.60;;;1.05;;
25237;SDS011;13185;50.872;5.306;2023-03-23T05:47:16;1.63;;;0.75;;
25237;SDS011;13185;50.872;5.306;2023-03-23T05:49:48;6.80;;;0.90;;
25237;SDS011;13185;50.872;5.306;2023-03-23T05:52:17;2.60;;;0.93;;
25237;SDS011;13185;50.872;5.306;2023-03-23T05:54:44;3.88;;;0.90;;
25237;SDS011;13185;50.872;5.306;2023-03-23T05:57:11;2.78;;;0.75;;
25237;SDS011;13185;50.872;5.306;2023-03-23T05:59:43;4.55;;;1.10;;
25237;SDS011;13185;50.872;5.306;2023-03-23T06:02:15;2.70;;;0.85;;
25237;SDS011;13185;50.872;5.306;2023-03-23T06:04:41;2.30;;;0.88;;
25237;SDS011;13185;50.872;5.306;2023-03-23T06:09:47;2.78;;;0.98;;
25237;SDS011;13185;50.872;5.306;2023-03-23T06:12:13;5.07;;;0.82;;
25237;SDS011;13185;50.872;5.306;2023-03-23T06:15:14;5.65;;;0.90;;
25237;SDS011;13185;50.872;5.306;2023-03-23T06:17:58;7.43;;;1.20;;
25237;SDS011;13185;50.872;5.306;2023-03-23T06:20:30;4.90;;;1.30;;
25237;SDS011;13185;50.872;5.306;2023-03-23T06:22:58;5.35;;;1.08;;
25237;SDS011;13185;50.872;5.306;2023-03-23T06:25:30;4.35;;;1.15;;
25237;SDS011;13185;50.872;5.306;2023-03-23T06:27:56;2.38;;;0.77;;
25237;SDS011;13185;50.872;5.306;2023-03-23T06:30:22;3.88;;;1.00;;
25237;SDS011;13185;50.872;5.306;2023-03-23T06:32:49;5.65;;;1.05;;
25237;SDS011;13185;50.872;5.306;2023-03-23T06:35:21;3.88;;;1.17;;
25237;SDS011;13185;50.872;5.306;2023-03-23T06:37:53;1.85;;;0.70;;
25237;SDS011;13185;50.872;5.306;2023-03-23T06:40:27;4.55;;;1.20;;
25237;SDS011;13185;50.872;5.306;2023-03-23T06:42:56;3.63;;;0.52;;
25237;SDS011;13185;50.872;5.306;2023-03-23T06:45:39;3.00;;;0.75;;
25237;SDS011;13185;50.872;5.306;2023-03-23T06:48:23;2.20;;;0.90;;
25237;SDS011;13185;50.872;5.306;2023-03-23T06:50:49;4.22;;;0.70;;
25237;SDS011;13185;50.872;5.306;2023-03-23T06:53:17;3.15;;;0.70;;
25237;SDS011;13185;50.872;5.306;2023-03-23T06:55:44;3.08;;;0.93;;
25237;SDS011;13185;50.872;5.306;2023-03-23T06:58:10;2.53;;;0.75;;
25237;SDS011;13185;50.872;5.306;2023-03-23T07:00:36;2.28;;;0.70;;
25237;SDS011;13185;50.872;5.306;2023-03-23T07:03:02;7.75;;;1.00;;
25237;SDS011;13185;50.872;5.306;2023-03-23T07:05:29;3.75;;;0.70;;
25237;SDS011;13185;50.872;5.306;2023-03-23T07:07:55;3.63;;;1.25;;
25237;SDS011;13185;50.872;5.306;2023-03-23T07:10:43;5.20;;;1.65;;
25237;SDS011;13185;50.872;5.306;2023-03-23T07:13:09;5.40;;;0.85;;
25237;SDS011;13185;50.872;5.306;2023-03-23T07:15:45;4.93;;;0.93;;
25237;SDS011;13185;50.872;5.306;2023-03-23T07:18:11;4.65;;;0.90;;
25237;SDS011;13185;50.872;5.306;2023-03-23T07:20:46;3.80;;;0.70;;
25237;SDS011;13185;50.872;5.306;2023-03-23T07:23:14;4.45;;;0.80;;
25237;SDS011;13185;50.872;5.306;2023-03-23T07:25:55;3.13;;;0.88;;
25237;SDS011;13185;50.872;5.306;2023-03-23T07:28:27;3.40;;;1.05;;
25237;SDS011;13185;50.872;5.306;2023-03-23T07:30:59;2.83;;;0.88;;
25237;SDS011;13185;50.872;5.306;2023-03-23T07:33:24;4.18;;;1.00;;
25237;SDS011;13185;50.872;5.306;2023-03-23T07:35:52;2.50;;;1.02;;
25237;SDS011;13185;50.872;5.306;2023-03-23T07:38:18;6.50;;;1.88;;
25237;SDS011;13185;50.872;5.306;2023-03-23T07:40:47;3.53;;;0.75;;
25237;SDS011;13185;50.872;5.306;2023-03-23T07:43:16;4.07;;;0.95;;
25237;SDS011;13185;50.872;5.306;2023-03-23T07:46:00;3.67;;;1.77;;
25237;SDS011;13185;50.872;5.306;2023-03-23T07:48:34;4.22;;;0.80;;
25237;SDS011;13185;50.872;5.306;2023-03-23T07:51:00;4.53;;;0.93;;
25237;SDS011;13185;50.872;5.306;2023-03-23T07:53:28;5.53;;;1.33;;
25237;SDS011;13185;50.872;5.306;2023-03-23T07:56:11;4.10;;;0.80;;
25237;SDS011;13185;50.872;5.306;2023-03-23T07:59:03;3.60;;;0.73;;
25237;SDS011;13185;50.872;5.306;2023-03-23T08:01:31;6.40;;;1.10;;
25237;SDS011;13185;50.872;5.306;2023-03-23T08:04:17;2.22;;;0.45;;
25237;SDS011;13185;50.872;5.306;2023-03-23T08:07:03;3.15;;;0.98;;
25237;SDS011;13185;50.872;5.306;2023-03-23T08:09:39;4.15;;;0.73;;
25237;SDS011;13185;50.872;5.306;2023-03-23T08:12:27;4.05;;;0.82;;
25237;SDS011;13185;50.872;5.306;2023-03-23T08:15:12;3.70;;;0.95;;
25237;SDS011;13185;50.872;5.306;2023-03-23T08:18:00;5.45;;;1.40;;
25237;SDS011;13185;50.872;5.306;2023-03-23T08:20:45;3.10;;;0.85;;
25237;SDS011;13185;50.872;5.306;2023-03-23T08:23:22;4.95;;;2.30;;
25237;SDS011;13185;50.872;5.306;2023-03-23T08:26:06;2.05;;;0.75;;
25237;SDS011;13185;50.872;5.306;2023-03-23T08:28:53;3.15;;;0.82;;
25237;SDS011;13185;50.872;5.306;2023-03-23T08:31:24;4.22;;;0.82;;
25237;SDS011;13185;50.872;5.306;2023-03-23T08:34:08;4.43;;;0.90;;
25237;SDS011;13185;50.872;5.306;2023-03-23T08:36:52;5.22;;;1.02;;
25237;SDS011;13185;50.872;5.306;2023-03-23T08:39:50;5.28;;;0.90;;
25237;SDS011;13185;50.872;5.306;2023-03-23T08:42:40;4.28;;;1.13;;
25237;SDS011;13185;50.872;5.306;2023-03-23T08:45:26;2.38;;;0.90;;
25237;SDS011;13185;50.872;5.306;2023-03-23T08:47:52;7.55;;;1.40;;
25237;SDS011;13185;50.872;5.306;2023-03-23T08:50:43;1.73;;;0.80;;
25237;SDS011;13185;50.872;5.306;2023-03-23T08:56:51;2.33;;;0.77;;
25237;SDS011;13185;50.872;5.306;2023-03-23T08:59:43;5.43;;;0.80;;
25237;SDS011;13185;50.872;5.306;2023-03-23T09:02:20;2.25;;;1.00;;
25237;SDS011;13185;50.872;5.306;2023-03-23T09:05:01;4.60;;;1.30;;
25237;SDS011;13185;50.872;5.306;2023-03-23T09:08:00;4.60;;;1.42;;
25237;SDS011;13185;50.872;5.306;2023-03-23T09:10:27;5.10;;;0.98;;
25237;SDS011;13185;50.872;5.306;2023-03-23T09:12:55;3.00;;;1.17;;
25237;SDS011;13185;50.872;5.306;2023-03-23T09:15:21;6.55;;;0.90;;
25237;SDS011;13185;50.872;5.306;2023-03-23T09:17:48;3.67;;;1.15;;
25237;SDS011;13185;50.872;5.306;2023-03-23T09:20:17;6.28;;;0.68;;
25237;SDS011;13185;50.872;5.306;2023-03-23T09:22:47;1.58;;;0.40;;
25237;SDS011;13185;50.872;5.306;2023-03-23T09:25:16;1.77;;;0.90;;
25237;SDS011;13185;50.872;5.306;2023-03-23T09:27:46;2.35;;;0.70;;
25237;SDS011;13185;50.872;5.306;2023-03-23T09:30:16;4.75;;;0.80;;
25237;SDS011;13185;50.872;5.306;2023-03-23T09:32:44;2.42;;;1.10;;
25237;SDS011;13185;50.872;5.306;2023-03-23T09:35:10;3.65;;;0.80;;
25237;SDS011;13185;50.872;5.306;2023-03-23T09:37:38;4.10;;;0.88;;
25237;SDS011;13185;50.872;5.306;2023-03-23T09:40:05;4.18;;;0.75;;
25237;SDS011;13185;50.872;5.306;2023-03-23T09:48:18;1.85;;;0.55;;
25237;SDS011;13185;50.872;5.306;2023-03-23T09:50:48;6.18;;;0.82;;
25237;SDS011;13185;50.872;5.306;2023-03-23T09:55:52;4.65;;;1.40;;
25237;SDS011;13185;50.872;5.306;2023-03-23T09:58:23;3.85;;;1.10;;
25237;SDS011;13185;50.872;5.306;2023-03-23T10:03:27;2.15;;;0.40;;
25237;SDS011;13185;50.872;5.306;2023-03-23T10:05:59;2.25;;;0.65;;
25237;SDS011;13185;50.872;5.306;2023-03-23T10:08:29;0.90;;;0.40;;
25237;SDS011;13185;50.872;5.306;2023-03-23T10:11:01;2.92;;;0.60;;
25237;SDS011;13185;50.872;5.306;2023-03-23T10:16:09;2.63;;;0.57;;
25237;SDS011;13185;50.872;5.306;2023-03-23T10:21:41;1.10;;;0.40;;
25237;SDS011;13185;50.872;5.306;2023-03-23T10:24:16;0.80;;;0.25;;
25237;SDS011;13185;50.872;5.306;2023-03-23T10:35:04;3.00;;;0.70;;
25237;SDS011;13185;50.872;5.306;2023-03-23T10:37:37;1.83;;;0.65;;
25237;SDS011;13185;50.872;5.306;2023-03-23T10:40:11;1.90;;;0.40;;
25237;SDS011;13185;50.872;5.306;2023-03-23T10:42:41;1.50;;;0.45;;
25237;SDS011;13185;50.872;5.306;2023-03-23T10:47:39;1.92;;;0.40;;
25237;SDS011;13185;50.872;5.306;2023-03-23T10:50:12;2.58;;;0.68;;
25237;SDS011;13185;50.872;5.306;2023-03-23T10:52:43;5.18;;;0.50;;
25237;SDS011;13185;50.872;5.306;2023-03-23T10:55:13;1.38;;;0.60;;
25237;SDS011;13185;50.872;5.306;2023-03-23T10:57:42;0.98;;;0.40;;
25237;SDS011;13185;50.872;5.306;2023-03-23T11:00:20;1.85;;;0.65;;
25237;SDS011;13185;50.872;5.306;2023-03-23T11:05:26;3.42;;;0.60;;
25237;SDS011;13185;50.872;5.306;2023-03-23T11:07:59;1.50;;;0.65;;
25237;SDS011;13185;50.872;5.306;2023-03-23T11:10:36;2.00;;;0.65;;
25237;SDS011;13185;50.872;5.306;2023-03-23T11:13:04;1.45;;;0.70;;
25237;SDS011;13185;50.872;5.306;2023-03-23T11:15:39;1.85;;;0.70;;
25237;SDS011;13185;50.872;5.306;2023-03-23T11:18:09;1.83;;;0.70;;
25237;SDS011;13185;50.872;5.306;2023-03-23T11:20:37;1.77;;;0.90;;
25237;SDS011;13185;50.872;5.306;2023-03-23T11:28:43;3.03;;;0.70;;
25237;SDS011;13185;50.872;5.306;2023-03-23T11:31:21;1.70;;;0.60;;
25237;SDS011;13185;50.872;5.306;2023-03-23T11:36:19;1.70;;;0.55;;
25237;SDS011;13185;50.872;5.306;2023-03-23T11:38:45;2.75;;;0.80;;
25237;SDS011;13185;50.872;5.306;2023-03-23T11:41:12;3.05;;;0.88;;
25237;SDS011;13185;50.872;5.306;2023-03-23T11:43:44;3.10;;;1.00;;
25237;SDS011;13185;50.872;5.306;2023-03-23T11:46:14;2.50;;;1.00;;
25237;SDS011;13185;50.872;5.306;2023-03-23T11:49:26;2.85;;;1.02;;
25237;SDS011;13185;50.872;5.306;2023-03-23T11:51:55;2.72;;;1.05;;
25237;SDS011;13185;50.872;5.306;2023-03-23T11:54:34;2.63;;;1.10;;
25237;SDS011;13185;50.872;5.306;2023-03-23T11:57:09;1.38;;;0.80;;
25237;SDS011;13185;50.872;5.306;2023-03-23T11:59:39;2.70;;;1.10;;
25237;SDS011;13185;50.872;5.306;2023-03-23T12:13:55;1.73;;;1.13;;
25237;SDS011;13185;50.872;5.306;2023-03-23T12:44:10;4.70;;;1.27;;
25237;SDS011;13185;50.872;5.306;2023-03-23T12:49:46;3.42;;;0.93;;
25237;SDS011;13185;50.872;5.306;2023-03-23T13:05:35;3.22;;;0.80;;
25237;SDS011;13185;50.872;5.306;2023-03-23T13:08:24;2.75;;;1.02;;
25237;SDS011;13185;50.872;5.306;2023-03-23T13:10:56;7.57;;;1.70;;
25237;SDS011;13185;50.872;5.306;2023-03-23T13:13:44;5.05;;;1.23;;
25237;SDS011;13185;50.872;5.306;2023-03-23T13:16:36;5.18;;;1.23;;
25237;SDS011;13185;50.872;5.306;2023-03-23T13:21:49;4.10;;;1.30;;
25237;SDS011;13185;50.872;5.306;2023-03-23T13:24:25;4.68;;;1.23;;
25237;SDS011;13185;50.872;5.306;2023-03-23T13:26:54;4.50;;;1.30;;
25237;SDS011;13185;50.872;5.306;2023-03-23T13:29:23;7.53;;;1.70;;
25237;SDS011;13185;50.872;5.306;2023-03-23T13:31:52;6.10;;;1.60;;
25237;SDS011;13185;50.872;5.306;2023-03-23T13:34:30;7.50;;;2.10;;
25237;SDS011;13185;50.872;5.306;2023-03-23T13:39:33;4.57;;;1.65;;
25237;SDS011;13185;50.872;5.306;2023-03-23T13:50:03;7.03;;;1.73;;
25237;SDS011;13185;50.872;5.306;2023-03-23T13:52:38;6.43;;;1.95;;
25237;SDS011;13185;50.872;5.306;2023-03-23T13:57:57;9.75;;;2.05;;
25237;SDS011;13185;50.872;5.306;2023-03-23T14:01:00;6.15;;;1.83;;
25237;SDS011;13185;50.872;5.306;2023-03-23T14:03:40;4.20;;;1.77;;
25237;SDS011;13185;50.872;5.306;2023-03-23T14:06:14;4.70;;;1.60;;
25237;SDS011;13185;50.872;5.306;2023-03-23T14:12:03;6.72;;;1.73;;
25237;SDS011;13185;50.872;5.306;2023-03-23T14:14:39;9.35;;;1.80;;
25237;SDS011;13185;50.872;5.306;2023-03-23T14:20:04;4.70;;;1.70;;
25237;SDS011;13185;50.872;5.306;2023-03-23T14:22:37;6.57;;;1.27;;
25237;SDS011;13185;50.872;5.306;2023-03-23T14:25:16;3.92;;;1.20;;
25237;SDS011;13185;50.872;5.306;2023-03-23T14:27:44;4.95;;;1.38;;
25237;SDS011;13185;50.872;5.306;2023-03-23T14:30:15;5.55;;;1.50;;
25237;SDS011;13185;50.872;5.306;2023-03-23T14:32:42;4.47;;;1.35;;
25237;SDS011;13185;50.872;5.306;2023-03-23T14:35:17;4.30;;;1.40;;
25237;SDS011;13185;50.872;5.306;2023-03-23T14:37:51;4.35;;;1.30;;
25237;SDS011;13185;50.872;5.306;2023-03-23T14:40:18;5.22;;;1.50;;
25237;SDS011;13185;50.872;5.306;2023-03-23T14:42:43;4.18;;;1.30;;
25237;SDS011;13185;50.872;5.306;2023-03-23T14:45:12;4.22;;;1.40;;
25237;SDS011;13185;50.872;5.306;2023-03-23T14:47:42;6.60;;;1.45;;
25237;SDS011;13185;50.872;5.306;2023-03-23T14:53:07;3.92;;;1.40;;
25237;SDS011;13185;50.872;5.306;2023-03-23T14:55:37;6.88;;;1.52;;
25237;SDS011;13185;50.872;5.306;2023-03-23T14:58:08;9.32;;;1.90;;
25237;SDS011;13185;50.872;5.306;2023-03-23T15:00:35;6.00;;;1.50;;
25237;SDS011;13185;50.872;5.306;2023-03-23T15:03:06;3.95;;;1.33;;
25237;SDS011;13185;50.872;5.306;2023-03-23T15:05:38;6.57;;;1.20;;
25237;SDS011;13185;50.872;5.306;2023-03-23T15:08:11;5.55;;;1.23;;
25237;SDS011;13185;50.872;5.306;2023-03-23T15:10:41;6.15;;;1.55;;
25237;SDS011;13185;50.872;5.306;2023-03-23T15:13:10;5.60;;;1.27;;
25237;SDS011;13185;50.872;5.306;2023-03-23T15:15:37;5.82;;;1.25;;
25237;SDS011;13185;50.872;5.306;2023-03-23T15:18:03;5.47;;;1.40;;
25237;SDS011;13185;50.872;5.306;2023-03-23T15:23:08;6.47;;;1.55;;
25237;SDS011;13185;50.872;5.306;2023-03-23T15:25:50;5.75;;;1.88;;
25237;SDS011;13185;50.872;5.306;2023-03-23T15:28:18;3.53;;;1.20;;
25237;SDS011;13185;50.872;5.306;2023-03-23T15:30:53;4.72;;;1.55;;
25237;SDS011;13185;50.872;5.306;2023-03-23T15:33:23;5.95;;;1.17;;
25237;SDS011;13185;50.872;5.306;2023-03-23T15:35:53;8.60;;;1.38;;
25237;SDS011;13185;50.872;5.306;2023-03-23T15:38:21;5.30;;;1.27;;
25237;SDS011;13185;50.872;5.306;2023-03-23T15:41:19;5.95;;;1.35;;
25237;SDS011;13185;50.872;5.306;2023-03-23T15:44:10;5.30;;;1.58;;
25237;SDS011;13185;50.872;5.306;2023-03-23T15:46:47;3.30;;;1.25;;
25237;SDS011;13185;50.872;5.306;2023-03-23T15:49:15;12.88;;;1.63;;
25237;SDS011;13185;50.872;5.306;2023-03-23T15:51:41;6.97;;;1.95;;
25237;SDS011;13185;50.872;5.306;2023-03-23T15:54:09;6.03;;;1.30;;
25237;SDS011;13185;50.872;5.306;2023-03-23T15:56:38;5.32;;;1.20;;
25237;SDS011;13185;50.872;5.306;2023-03-23T15:59:04;6.85;;;2.13;;
25237;SDS011;13185;50.872;5.306;2023-03-23T16:01:30;6.30;;;1.23;;
25237;SDS011;13185;50.872;5.306;2023-03-23T16:03:57;7.22;;;1.33;;
25237;SDS011;13185;50.872;5.306;2023-03-23T16:06:36;5.38;;;1.67;;
25237;SDS011;13185;50.872;5.306;2023-03-23T16:09:02;6.13;;;1.20;;
25237;SDS011;13185;50.872;5.306;2023-03-23T16:11:29;7.25;;;1.52;;
25237;SDS011;13185;50.872;5.306;2023-03-23T16:13:55;5.93;;;2.00;;
25237;SDS011;13185;50.872;5.306;2023-03-23T16:19:12;4.38;;;1.40;;
25237;SDS011;13185;50.872;5.306;2023-03-23T16:21:38;4.43;;;1.60;;
25237;SDS011;13185;50.872;5.306;2023-03-23T16:24:05;7.82;;;1.55;;
25237;SDS011;13185;50.872;5.306;2023-03-23T16:26:32;7.25;;;1.48;;
25237;SDS011;13185;50.872;5.306;2023-03-23T16:28:58;4.75;;;1.50;;
25237;SDS011;13185;50.872;5.306;2023-03-23T16:31:24;7.50;;;1.45;;
25237;SDS011;13185;50.872;5.306;2023-03-23T16:33:49;5.22;;;1.60;;
25237;SDS011;13185;50.872;5.306;2023-03-23T16:36:15;4.13;;;1.23;;
25237;SDS011;13185;50.872;5.306;2023-03-23T16:38:41;6.57;;;1.75;;
25237;SDS011;13185;50.872;5.306;2023-03-23T16:41:06;5.55;;;1.52;;
25237;SDS011;13185;50.872;5.306;2023-03-23T16:43:33;2.50;;;0.90;;
25237;SDS011;13185;50.872;5.306;2023-03-23T16:45:58;5.07;;;1.23;;
25237;SDS011;13185;50.872;5.306;2023-03-23T16:48:24;6.25;;;1.83;;
25237;SDS011;13185;50.872;5.306;2023-03-23T16:50:51;9.73;;;2.45;;
25237;SDS011;13185;50.872;5.306;2023-03-23T16:53:18;7.22;;;1.60;;
25237;SDS011;13185;50.872;5.306;2023-03-23T16:55:45;6.75;;;1.33;;
25237;SDS011;13185;50.872;5.306;2023-03-23T16:58:13;6.63;;;1.65;;
25237;SDS011;13185;50.872;5.306;2023-03-23T17:00:40;5.07;;;1.17;;
25237;SDS011;13185;50.872;5.306;2023-03-23T17:03:06;4.57;;;1.30;;
25237;SDS011;13185;50.872;5.306;2023-03-23T17:05:31;8.18;;;2.53;;
25237;SDS011;13185;50.872;5.306;2023-03-23T17:07:59;4.38;;;1.48;;
25237;SDS011;13185;50.872;5.306;2023-03-23T17:10:25;7.38;;;2.08;;
25237;SDS011;13185;50.872;5.306;2023-03-23T17:12:52;8.43;;;2.35;;
25237;SDS011;13185;50.872;5.306;2023-03-23T17:15:18;5.28;;;1.80;;
25237;SDS011;13185;50.872;5.306;2023-03-23T17:17:44;6.85;;;2.35;;
25237;SDS011;13185;50.872;5.306;2023-03-23T17:20:10;8.88;;;3.28;;
25237;SDS011;13185;50.872;5.306;2023-03-23T17:22:36;5.03;;;1.50;;
25237;SDS011;13185;50.872;5.306;2023-03-23T17:25:02;5.22;;;1.55;;
25237;SDS011;13185;50.872;5.306;2023-03-23T17:27:29;8.27;;;2.10;;
25237;SDS011;13185;50.872;5.306;2023-03-23T17:29:54;6.22;;;1.50;;
25237;SDS011;13185;50.872;5.306;2023-03-23T17:32:20;5.80;;;1.00;;
25237;SDS011;13185;50.872;5.306;2023-03-23T17:34:47;5.38;;;1.50;;
25237;SDS011;13185;50.872;5.306;2023-03-23T17:37:13;7.60;;;1.30;;
25237;SDS011;13185;50.872;5.306;2023-03-23T17:39:39;3.95;;;1.23;;
25237;SDS011;13185;50.872;5.306;2023-03-23T17:42:04;7.53;;;1.52;;
25237;SDS011;13185;50.872;5.306;2023-03-23T17:44:30;5.20;;;1.17;;
25237;SDS011;13185;50.872;5.306;2023-03-23T17:46:55;5.55;;;1.48;;
25237;SDS011;13185;50.872;5.306;2023-03-23T17:49:21;4.85;;;1.10;;
25237;SDS011;13185;50.872;5.306;2023-03-23T17:51:48;4.82;;;1.30;;
25237;SDS011;13185;50.872;5.306;2023-03-23T17:54:14;5.97;;;1.50;;